createdAt,value
2023-02-06T00:02:16.948Z,102183.41
2023-02-06T00:07:19.678Z,102203.56
2023-02-06T00:12:22.610Z,102198.03
2023-02-06T00:17:26.645Z,102203.81
2023-02-06T00:22:29.330Z,102213.84
2023-02-06T00:27:32.229Z,102201.31
2023-02-06T00:32:36.976Z,102206.72
2023-02-06T00:37:39.707Z,102209.00
2023-02-06T00:42:42.416Z,102194.94
2023-02-06T00:47:46.446Z,102193.16
2023-02-06T00:52:49.125Z,102199.88
2023-02-06T00:57:51.853Z,102196.06
2023-02-06T01:02:55.905Z,102195.78
2023-02-06T01:07:58.641Z,102203.88
2023-02-06T01:13:01.695Z,102205.28
2023-02-06T01:18:05.973Z,102209.25
2023-02-06T01:23:08.701Z,102217.31
2023-02-06T01:28:11.459Z,102223.09
2023-02-06T01:33:15.502Z,102226.03
2023-02-06T01:38:19.230Z,102217.97
2023-02-06T01:43:28.570Z,102216.28
2023-02-06T01:48:36.149Z,102205.59
2023-02-06T01:53:39.313Z,102207.97
2023-02-06T01:58:43.831Z,102207.47
2023-02-06T02:03:50.393Z,102202.47
2023-02-06T02:08:58.091Z,102191.69
2023-02-06T02:14:02.072Z,102185.13
2023-02-06T02:19:42.721Z,102191.97
2023-02-06T02:25:00.601Z,102194.06
2023-02-06T02:30:48.736Z,102194.56
2023-02-06T02:35:55.326Z,102191.78
2023-02-06T02:41:03.434Z,102202.59
2023-02-06T02:46:11.721Z,102202.91
2023-02-06T02:51:16.080Z,102210.09
2023-02-06T02:56:21.860Z,102191.94
2023-02-06T03:01:32.032Z,102188.84
2023-02-06T03:07:04.770Z,102193.41
2023-02-06T03:12:13.029Z,102195.34
2023-02-06T03:17:20.254Z,102214.91
2023-02-06T03:22:25.576Z,102202.97
2023-02-06T03:27:29.070Z,102197.16
2023-02-06T03:32:33.742Z,102203.25
2023-02-06T03:37:38.180Z,102208.50
2023-02-06T03:42:44.326Z,102229.59
2023-02-06T03:47:48.114Z,102232.56
2023-02-06T03:52:52.715Z,102231.97
2023-02-06T03:57:57.734Z,102247.94
2023-02-06T04:03:01.281Z,102247.78
2023-02-06T04:08:05.638Z,102258.31
2023-02-06T04:13:08.431Z,102249.38
2023-02-06T04:18:11.179Z,102265.41
2023-02-06T04:23:15.291Z,102282.81
2023-02-06T04:28:18.081Z,102261.34
2023-02-06T04:33:20.866Z,102241.66
2023-02-06T04:38:24.970Z,102252.16
2023-02-06T04:43:27.715Z,102262.22
2023-02-06T04:48:30.519Z,102271.09
2023-02-06T04:53:34.632Z,102251.94
2023-02-06T04:58:37.876Z,102249.66
2023-02-06T05:03:40.651Z,102249.78
2023-02-06T05:08:44.982Z,102245.88
2023-02-06T05:13:47.760Z,102247.31
2023-02-06T05:18:54.148Z,102251.56
2023-02-06T05:23:58.277Z,102243.69
2023-02-06T05:29:01.044Z,102242.09
2023-02-06T05:34:03.874Z,102232.63
2023-02-06T05:39:08.018Z,102237.72
2023-02-06T05:44:11.371Z,102230.72
2023-02-06T05:49:14.080Z,102233.06
2023-02-06T05:54:18.423Z,102233.34
2023-02-06T05:59:21.376Z,102235.31
2023-02-06T06:04:24.269Z,102242.34
2023-02-06T06:09:28.477Z,102238.69
2023-02-06T06:14:31.288Z,102239.06
2023-02-06T06:19:34.213Z,102230.94
2023-02-06T06:24:38.775Z,102231.44
2023-02-06T06:29:41.914Z,102244.09
2023-02-06T06:34:44.657Z,102249.56
2023-02-06T06:39:48.758Z,102247.47
2023-02-06T06:44:51.512Z,102253.97
2023-02-06T06:49:54.254Z,102271.25
2023-02-06T06:54:58.419Z,102267.69
2023-02-06T07:00:01.191Z,102265.53
2023-02-06T07:05:04.125Z,102269.59
2023-02-06T07:10:09.562Z,102259.44
2023-02-06T07:15:12.417Z,102241.44
2023-02-06T07:20:15.717Z,102246.50
2023-02-06T07:25:20.242Z,102240.44
2023-02-06T07:30:23.051Z,102248.34
2023-02-06T07:35:25.881Z,102242.38
2023-02-06T07:40:44.020Z,102241.47
2023-02-06T07:45:47.250Z,102235.06
2023-02-06T07:50:50.118Z,102246.97
2023-02-06T07:55:54.630Z,102255.22
2023-02-06T08:01:00.591Z,102266.47
2023-02-06T08:06:08.924Z,102277.81
2023-02-06T08:11:15.011Z,102278.09
2023-02-06T08:16:19.540Z,102274.06
2023-02-06T08:21:23.630Z,102276.19
2023-02-06T08:26:28.629Z,102275.81
2023-02-06T08:31:33.892Z,102282.47
2023-02-06T08:36:36.987Z,102278.22
2023-02-06T08:41:42.802Z,102265.66
2023-02-06T08:46:45.826Z,102252.25
2023-02-06T08:51:50.139Z,102265.72
2023-02-06T08:56:56.691Z,102269.66
2023-02-06T09:01:59.548Z,102269.56
2023-02-06T09:07:02.288Z,102263.53
2023-02-06T09:12:07.021Z,102265.97
2023-02-06T09:17:09.915Z,102252.31
2023-02-06T09:22:12.752Z,102255.72
2023-02-06T09:27:16.907Z,102257.50
2023-02-06T09:32:19.651Z,102260.78
2023-02-06T09:37:23.384Z,102256.53
2023-02-06T09:42:31.555Z,102252.00
2023-02-06T09:47:36.668Z,102253.88
2023-02-06T09:52:53.487Z,102250.91
2023-02-06T09:58:02.281Z,102239.69
2023-02-06T10:03:18.703Z,102229.41
2023-02-06T10:08:24.397Z,102230.66
2023-02-06T10:13:32.116Z,102226.50
2023-02-06T10:18:37.482Z,102235.56
2023-02-06T10:23:43.080Z,102216.00
2023-02-06T10:28:49.716Z,102211.41
2023-02-06T10:33:59.672Z,102217.28
2023-02-06T10:39:33.659Z,102215.88
2023-02-06T10:44:51.145Z,102219.66
2023-02-06T10:50:00.445Z,102209.97
2023-02-06T10:55:13.264Z,102207.19
2023-02-06T11:00:21.248Z,102199.28
2023-02-06T11:05:25.970Z,102200.78
2023-02-06T11:10:28.746Z,102204.22
2023-02-06T11:15:37.565Z,102200.38
2023-02-06T11:20:44.430Z,102200.91
2023-02-06T11:25:51.293Z,102226.47
2023-02-06T11:31:00.635Z,102220.31
2023-02-06T11:36:05.165Z,102226.94
2023-02-06T11:41:18.707Z,102236.75
2023-02-06T11:46:26.494Z,102226.44
2023-02-06T11:51:47.396Z,102222.34
2023-02-06T11:57:03.086Z,102230.34
2023-02-06T12:02:26.411Z,102227.41
2023-02-06T12:07:31.351Z,102217.28
2023-02-06T12:12:35.791Z,102225.75
2023-02-06T12:17:42.761Z,102212.56
2023-02-06T12:22:48.792Z,102216.69
2023-02-06T12:27:51.412Z,102209.03
2023-02-06T12:33:00.271Z,102206.16
2023-02-06T12:38:07.997Z,102204.44
2023-02-06T12:43:12.851Z,102196.97
2023-02-06T12:48:20.729Z,102189.31
2023-02-06T12:53:27.300Z,102192.06
2023-02-06T12:58:35.322Z,102193.41
2023-02-06T13:03:43.424Z,102191.16
2023-02-06T13:08:49.860Z,102180.25
2023-02-06T13:14:01.456Z,102187.16
2023-02-06T13:19:05.912Z,102162.00
2023-02-06T13:24:20.342Z,102152.44
2023-02-06T13:29:25.174Z,102171.66
2023-02-06T13:34:29.972Z,102146.50
2023-02-06T13:39:34.634Z,102148.69
2023-02-06T13:44:38.753Z,102135.38
2023-02-06T13:50:13.576Z,102142.03
2023-02-06T13:55:25.451Z,102144.09
2023-02-06T14:00:30.306Z,102162.34
2023-02-06T14:05:42.513Z,102162.34
2023-02-06T14:11:28.539Z,102163.72
2023-02-06T14:16:38.371Z,102161.94
2023-02-06T14:21:46.635Z,102169.63
2023-02-06T14:26:55.301Z,102173.28
2023-02-06T14:32:11.199Z,102166.69
2023-02-06T14:37:39.500Z,102169.66
2023-02-06T14:42:44.294Z,102170.09
2023-02-06T14:47:47.579Z,102168.84
2023-02-06T14:52:54.083Z,102170.97
2023-02-06T14:57:57.226Z,102166.69
2023-02-06T15:03:09.196Z,102170.69
2023-02-06T15:08:19.692Z,102178.50
2023-02-06T15:13:23.320Z,102192.28
2023-02-06T15:18:27.548Z,102188.75
2023-02-06T15:23:41.558Z,102189.47
2023-02-06T15:28:45.079Z,102184.16
2023-02-06T15:33:49.578Z,102184.19
2023-02-06T15:38:53.787Z,102179.69
2023-02-06T15:44:01.109Z,102187.00
2023-02-06T15:49:03.827Z,102196.16
2023-02-06T15:54:10.738Z,102202.44
2023-02-06T15:59:17.379Z,102211.66
2023-02-06T16:04:28.236Z,102220.41
2023-02-06T16:09:33.377Z,102218.44
2023-02-06T16:14:37.439Z,102220.06
2023-02-06T16:19:48.008Z,102220.41
2023-02-06T16:24:53.755Z,102221.97
2023-02-06T16:29:58.157Z,102219.25
2023-02-06T16:35:01.498Z,102219.59
2023-02-06T16:40:06.651Z,102230.31
2023-02-06T16:45:17.807Z,102241.50
2023-02-06T16:50:21.526Z,102236.78
2023-02-06T16:55:27.137Z,102240.44
2023-02-06T17:00:32.433Z,102249.66
2023-02-06T17:05:37.234Z,102250.59
2023-02-06T17:10:41.310Z,102252.91
2023-02-06T17:15:46.982Z,102258.75
2023-02-06T17:20:52.629Z,102261.34
2023-02-06T17:25:56.675Z,102268.06
2023-02-06T17:30:59.488Z,102262.25
2023-02-06T17:36:02.647Z,102268.06
2023-02-06T17:41:06.796Z,102259.16
2023-02-06T17:46:11.639Z,102267.44
2023-02-06T17:51:14.394Z,102266.47
2023-02-06T17:56:19.278Z,102274.91
2023-02-06T18:01:23.945Z,102263.22
2023-02-06T18:06:26.816Z,102262.09
2023-02-06T18:11:31.385Z,102262.72
2023-02-06T18:16:34.283Z,102273.84
2023-02-06T18:21:37.150Z,102279.16
2023-02-06T18:26:41.224Z,102296.44
2023-02-06T18:31:43.963Z,102297.16
2023-02-06T18:36:46.697Z,102310.00
2023-02-06T18:42:08.328Z,102321.97
2023-02-06T18:47:12.070Z,102324.53
2023-02-06T18:52:15.416Z,102331.19
2023-02-06T18:57:19.560Z,102346.09
2023-02-06T19:02:22.379Z,102358.47
2023-02-06T19:07:25.241Z,102374.59
2023-02-06T19:12:30.170Z,102386.00
2023-02-06T19:17:33.698Z,102396.41
2023-02-06T19:22:36.984Z,102411.00
2023-02-06T19:27:41.103Z,102421.97
2023-02-06T19:32:43.918Z,102431.47
2023-02-06T19:37:46.810Z,102429.69
2023-02-06T19:42:50.880Z,102448.13
2023-02-06T19:47:53.667Z,102460.53
2023-02-06T19:52:56.395Z,102469.25
2023-02-06T19:58:00.504Z,102462.41
2023-02-06T20:03:03.233Z,102478.53
2023-02-06T20:08:06.322Z,102492.75
2023-02-06T20:13:10.566Z,102504.78
2023-02-06T20:18:13.345Z,102514.31
2023-02-06T20:23:16.059Z,102530.25
2023-02-06T20:28:20.411Z,102550.31
2023-02-06T20:33:23.175Z,102562.59
2023-02-06T20:38:26.242Z,102561.34
2023-02-06T20:43:30.681Z,102658.16
2023-02-06T20:48:34.039Z,102675.66
2023-02-06T20:53:36.759Z,102682.34
2023-02-06T20:58:40.918Z,102692.16
2023-02-06T21:03:44.036Z,102701.03
2023-02-06T21:08:47.575Z,102712.63
2023-02-06T21:13:51.630Z,102718.34
2023-02-06T21:18:54.579Z,102724.31
2023-02-06T21:23:57.364Z,102720.06
2023-02-06T21:29:02.629Z,102720.00
2023-02-06T21:34:08.202Z,102732.06
2023-02-06T21:39:11.557Z,102738.78
2023-02-06T21:44:15.783Z,102739.13
2023-02-06T21:49:18.631Z,102741.94
2023-02-06T21:54:22.318Z,102741.56
2023-02-06T21:59:26.406Z,102738.59
2023-02-06T22:04:29.235Z,102756.97
2023-02-06T22:09:31.979Z,102755.84
2023-02-06T22:14:36.318Z,102746.81
2023-02-06T22:19:39.027Z,102762.34
2023-02-06T22:24:41.751Z,102759.03
2023-02-06T22:29:45.983Z,102754.97
2023-02-06T22:34:50.810Z,102733.78
2023-02-06T22:39:55.603Z,102749.56
2023-02-06T22:44:59.668Z,102759.19
2023-02-06T22:50:02.402Z,102765.69
2023-02-06T22:55:05.741Z,102740.13
2023-02-06T23:00:12.595Z,102751.25
2023-02-06T23:05:15.535Z,102768.47
2023-02-06T23:10:18.357Z,102753.06
2023-02-06T23:15:22.484Z,102761.97
2023-02-06T23:20:25.241Z,102788.63
2023-02-06T23:25:28.002Z,102793.03
2023-02-06T23:30:32.095Z,102805.66
2023-02-06T23:35:36.840Z,102798.81
2023-02-06T23:40:40.011Z,102803.41
2023-02-06T23:45:44.087Z,102807.50
2023-02-06T23:50:46.804Z,102794.88
2023-02-06T23:55:49.544Z,102801.94
